Time;durP1;ratioP1;P1;durP2;ratioP2;P2;SDS_P1;SDS_P2;PMS_P1;PMS_P2;Temp;Humidity;BMP_temperature;BMP_pressure;BME280_temperature;BME280_humidity;BME280_pressure;Samples;Min_cycle;Max_cycle;Signal;HPM_P1;HPM_P2
2021/12/13 00:00:16;;;;;;;3.20;2.10;;;;;;;11.50;69.71;100995.31;4927220;29;20540;-66
2021/12/13 00:03:12;;;;;;;1.83;1.73;;;;;;;11.49;69.47;100999.25;4931197;29;20158;-68
2021/12/13 00:05:45;;;;;;;1.63;1.20;;;;;;;11.63;69.01;100994.78;4932223;29;20079;-67
2021/12/13 00:08:18;;;;;;;1.50;1.40;;;;;;;11.51;68.94;100979.38;4929894;29;20509;-67
2021/12/13 00:10:54;;;;;;;1.73;1.13;;;;;;;11.62;69.08;101000.66;4927481;29;20222;-70
2021/12/13 00:13:34;;;;;;;2.30;1.33;;;;;;;11.59;69.22;100999.28;4918436;29;20246;-72
2021/12/13 00:16:04;;;;;;;1.55;1.25;;;;;;;11.56;69.27;100991.44;4932020;29;20052;-69
2021/12/13 00:18:37;;;;;;;3.03;1.45;;;;;;;11.52;69.15;100993.09;4931296;29;20058;-69
2021/12/13 00:21:09;;;;;;;6.10;2.63;;;;;;;11.66;68.74;100984.16;4932813;29;20504;-72
2021/12/13 00:23:46;;;;;;;2.77;1.80;;;;;;;11.57;68.66;100973.53;4935947;29;20432;-68
2021/12/13 00:26:30;;;;;;;1.50;1.13;;;;;;;11.66;68.62;100975.75;4935586;29;20139;-68
2021/12/13 00:28:58;;;;;;;2.67;1.67;;;;;;;11.59;68.91;100971.28;4936687;29;20082;-72
2021/12/13 00:31:43;;;;;;;3.80;1.73;;;;;;;11.66;68.64;100976.63;4933212;29;20135;-65
2021/12/13 00:34:38;;;;;;;3.53;2.03;;;;;;;11.67;68.57;100974.66;4936568;29;20512;-66
2021/12/13 00:37:11;;;;;;;6.07;3.03;;;;;;;11.71;68.30;100968.22;4930937;29;20052;-61
2021/12/13 00:39:45;;;;;;;1.30;1.20;;;;;;;11.72;68.18;100963.47;4930724;29;20154;-62
2021/12/13 00:42:13;;;;;;;6.77;2.43;;;;;;;11.73;68.31;100960.41;4935719;29;20087;-63
2021/12/13 00:44:45;;;;;;;2.33;1.33;;;;;;;11.75;68.22;100957.31;4931811;29;20134;-63
2021/12/13 00:47:33;;;;;;;2.80;1.57;;;;;;;11.69;68.31;100950.03;4933297;29;20107;-60
2021/12/13 00:50:11;;;;;;;0.70;0.60;;;;;;;11.66;68.64;100950.56;4936115;29;20040;-60
2021/12/13 00:52:41;;;;;;;5.53;1.93;;;;;;;11.61;68.69;100943.88;4934876;29;20722;-60
2021/12/13 00:55:25;;;;;;;7.18;2.25;;;;;;;11.60;68.72;100922.63;4934104;29;20153;-61
2021/12/13 00:58:07;;;;;;;2.67;1.63;;;;;;;11.46;68.65;100926.25;4931475;29;20075;-61
2021/12/13 01:00:51;;;;;;;2.70;1.50;;;;;;;11.39;69.31;100918.13;4933754;29;20470;-61
2021/12/13 01:03:27;;;;;;;1.97;1.50;;;;;;;11.25;69.49;100903.84;4928228;29;20083;-61
2021/12/13 01:06:31;;;;;;;1.50;1.07;;;;;;;11.37;69.48;100911.94;4928420;29;20075;-62
2021/12/13 01:08:58;;;;;;;1.27;1.07;;;;;;;11.39;69.53;100920.91;4937049;29;20079;-61
2021/12/13 01:11:49;;;;;;;3.20;1.23;;;;;;;11.43;69.35;100908.06;4934675;29;20083;-62
2021/12/13 01:14:41;;;;;;;1.40;1.13;;;;;;;11.47;69.17;100898.00;4932560;29;20083;-61
2021/12/13 01:17:14;;;;;;;5.20;2.40;;;;;;;11.52;68.85;100905.53;4934704;29;20130;-61
2021/12/13 01:19:58;;;;;;;3.17;1.50;;;;;;;11.59;68.69;100901.38;4936266;29;20086;-61
2021/12/13 01:28:20;;;;;;;1.47;1.00;;;;;;;11.54;68.67;100901.34;4927020;29;20083;-59
2021/12/13 01:30:53;;;;;;;3.03;1.10;;;;;;;11.42;68.83;100870.03;4933927;29;20091;-59
2021/12/13 01:33:22;;;;;;;4.27;1.87;;;;;;;11.52;68.96;100894.34;4933192;29;20058;-59
2021/12/13 01:35:51;;;;;;;1.03;0.90;;;;;;;11.51;68.78;100885.13;4926848;29;20122;-62
2021/12/13 01:38:34;;;;;;;2.80;1.25;;;;;;;11.47;68.85;100878.41;4934042;29;20090;-62
2021/12/13 01:41:14;;;;;;;2.80;2.07;;;;;;;11.50;68.97;100875.06;4934730;29;20510;-62
2021/12/13 01:43:48;;;;;;;1.40;1.15;;;;;;;11.51;68.75;100879.53;4932539;29;20083;-62
2021/12/13 01:46:18;;;;;;;1.43;1.17;;;;;;;11.45;69.02;100875.03;4933934;29;20134;-62
2021/12/13 01:48:47;;;;;;;1.17;1.05;;;;;;;11.51;68.87;100876.72;4933769;29;20048;-62
2021/12/13 01:51:19;;;;;;;1.15;0.95;;;;;;;11.52;68.84;100869.16;4935884;29;20131;-62
2021/12/13 01:54:00;;;;;;;4.40;2.17;;;;;;;11.58;68.59;100879.25;4949779;29;20143;-63
2021/12/13 02:02:27;;;;;;;2.63;1.50;;;;;;;11.80;67.82;100881.78;4931519;29;20139;-62
2021/12/13 02:05:03;;;;;;;3.70;1.37;;;;;;;11.71;68.07;100877.84;4935934;29;20134;-66
2021/12/13 02:07:52;;;;;;;2.93;1.60;;;;;;;11.70;68.21;100879.81;4933527;29;20094;-66
2021/12/13 02:10:27;;;;;;;1.20;1.05;;;;;;;11.66;68.32;100877.84;4939766;29;20088;-68
2021/12/13 02:13:00;;;;;;;0.83;0.57;;;;;;;11.69;68.32;100874.50;4937641;29;20079;-68
2021/12/13 02:18:23;;;;;;;2.03;1.27;;;;;;;11.80;67.90;100862.19;4932733;29;20491;-61
2021/12/13 02:21:06;;;;;;;2.43;1.30;;;;;;;11.90;67.50;100879.00;4930800;29;20151;-61
2021/12/13 02:23:36;;;;;;;3.37;1.00;;;;;;;11.95;67.34;100876.19;4934810;29;20134;-62
2021/12/13 02:26:04;;;;;;;2.53;1.40;;;;;;;11.89;67.24;100854.91;4935277;29;20088;-62
2021/12/13 02:28:35;;;;;;;3.23;1.60;;;;;;;11.87;67.43;100864.75;4932062;29;20481;-62
2021/12/13 02:31:13;;;;;;;1.73;0.93;;;;;;;11.69;67.62;100829.72;4933284;29;20147;-63
2021/12/13 02:33:42;;;;;;;0.47;0.43;;;;;;;11.85;67.89;100881.78;4935225;29;20106;-63
2021/12/13 02:36:18;;;;;;;4.57;1.87;;;;;;;11.77;67.71;100859.94;4935289;29;20126;-60
2021/12/13 02:38:49;;;;;;;1.53;1.13;;;;;;;11.88;67.69;100867.25;4927796;29;20147;-61
2021/12/13 02:41:20;;;;;;;0.67;0.60;;;;;;;11.83;67.83;100865.28;4932877;29;20146;-62
2021/12/13 02:43:51;;;;;;;2.63;0.90;;;;;;;11.87;67.66;100865.56;4927898;29;20051;-65
2021/12/13 02:46:18;;;;;;;3.27;1.70;;;;;;;11.74;67.56;100827.78;4931203;29;20142;-64
2021/12/13 02:48:52;;;;;;;2.50;1.50;;;;;;;11.85;67.80;100867.81;4934338;29;20051;-60
2021/12/13 02:51:28;;;;;;;2.63;1.00;;;;;;;11.89;67.57;100863.31;4916036;29;20087;-60
2021/12/13 02:54:04;;;;;;;1.70;1.07;;;;;;;11.79;67.79;100852.09;4915873;29;20048;-61
2021/12/13 02:56:44;;;;;;;0.70;0.50;;;;;;;11.87;67.67;100865.56;4928517;29;20079;-60
2021/12/13 02:59:13;;;;;;;2.60;1.20;;;;;;;11.98;67.23;100853.22;4934005;29;20074;-58
2021/12/13 03:01:45;;;;;;;1.67;0.90;;;;;;;11.93;67.53;100847.66;4934575;29;20640;-59
2021/12/13 03:04:18;;;;;;;0.60;0.60;;;;;;;11.87;67.53;100859.97;4934470;29;20567;-64
2021/12/13 03:06:54;;;;;;;0.50;0.50;;;;;;;11.87;67.65;100859.97;4933978;29;20059;-63
2021/12/13 03:09:23;;;;;;;2.33;1.53;;;;;;;11.91;67.63;100855.50;4934802;29;20048;-70
2021/12/13 03:11:52;;;;;;;0.63;0.43;;;;;;;11.92;67.41;100856.31;4933680;29;20143;-65
2021/12/13 03:14:32;;;;;;;1.23;1.00;;;;;;;11.87;67.35;100843.19;4934458;29;20055;-66
2021/12/13 03:16:59;;;;;;;1.20;0.65;;;;;;;12.00;67.22;100852.94;4935221;29;20079;-59
2021/12/13 03:19:43;;;;;;;2.00;1.10;;;;;;;11.98;67.32;100855.19;4933807;29;20495;-65
2021/12/13 03:22:56;;;;;;;0.73;0.63;;;;;;;11.85;67.58;100842.63;4931340;29;20138;-65
2021/12/13 03:25:41;;;;;;;0.87;0.40;;;;;;;11.89;67.55;100840.94;4925735;29;20135;-63
2021/12/13 03:28:46;;;;;;;1.20;1.00;;;;;;;11.91;67.22;100838.69;4932407;29;20135;-63
2021/12/13 03:31:25;;;;;;;0.87;0.60;;;;;;;11.82;67.71;100837.53;4924131;29;20151;-64
2021/12/13 03:33:55;;;;;;;0.57;0.50;;;;;;;11.83;67.52;100842.88;4931384;29;20500;-67
2021/12/13 03:36:42;;;;;;;2.17;1.30;;;;;;;11.59;67.63;100813.81;4929487;29;20550;-63
2021/12/13 03:39:15;;;;;;;0.63;0.50;;;;;;;11.83;67.73;100842.88;4930268;29;20487;-60
2021/12/13 03:41:45;;;;;;;1.60;1.00;;;;;;;11.89;67.47;100845.69;4927755;29;20131;-60
2021/12/13 03:44:17;;;;;;;0.73;0.53;;;;;;;11.90;67.49;100833.38;4932618;29;20130;-61
2021/12/13 03:46:49;;;;;;;1.43;1.00;;;;;;;11.81;67.16;100821.88;4932969;29;20076;-72
2021/12/13 03:49:19;;;;;;;1.67;1.27;;;;;;;11.73;67.47;100820.50;4935007;29;20082;-65
2021/12/13 03:51:46;;;;;;;1.17;0.70;;;;;;;11.84;67.55;100832.56;4937857;29;20126;-68
2021/12/13 03:54:17;;;;;;;2.10;0.60;;;;;;;11.88;67.21;100835.63;4937029;29;20055;-71
2021/12/13 03:56:48;;;;;;;1.57;0.97;;;;;;;11.81;67.20;100822.72;4938705;29;20075;-75
2021/12/13 03:59:22;;;;;;;2.30;0.63;;;;;;;11.80;67.62;100820.22;4935853;29;20047;-68
2021/12/13 04:01:53;;;;;;;0.40;0.40;;;;;;;11.89;67.41;100824.13;4929518;29;20048;-68
2021/12/13 04:04:43;;;;;;;1.90;1.40;;;;;;;11.73;67.43;100826.09;4931592;29;20043;-71
2021/12/13 04:07:15;;;;;;;1.30;0.60;;;;;;;11.82;67.27;100821.59;4923385;29;20131;-72
2021/12/13 04:09:44;;;;;;;2.73;0.83;;;;;;;11.76;67.43;100821.88;4936447;29;20126;-67
2021/12/13 04:12:14;;;;;;;0.50;0.47;;;;;;;11.76;67.37;100827.47;4933060;29;20134;-68
2021/12/13 04:14:52;;;;;;;3.28;1.23;;;;;;;11.84;67.25;100829.75;4933236;29;20143;-67
2021/12/13 04:17:35;;;;;;;1.37;1.00;;;;;;;11.87;67.33;100837.59;4931309;29;20054;-65
2021/12/13 04:20:08;;;;;;;0.83;0.60;;;;;;;11.88;67.06;100833.66;4937303;29;20139;-65
2021/12/13 04:22:38;;;;;;;0.67;0.60;;;;;;;11.91;66.90;100827.50;4936620;29;20126;-65
2021/12/13 04:25:11;;;;;;;0.57;0.55;;;;;;;11.83;67.30;100825.25;4936368;29;20135;-65
2021/12/13 04:27:48;;;;;;;0.43;0.43;;;;;;;11.74;67.30;100801.75;4931170;29;20146;-70
2021/12/13 04:30:20;;;;;;;1.43;1.13;;;;;;;11.85;67.19;100812.66;4934678;29;20126;-70
2021/12/13 04:32:55;;;;;;;0.70;0.70;;;;;;;11.79;67.32;100816.56;4931171;29;20086;-67
2021/12/13 04:35:23;;;;;;;1.10;0.80;;;;;;;11.68;67.48;100811.28;4930618;29;20138;-66
2021/12/13 04:37:54;;;;;;;1.43;0.60;;;;;;;11.80;67.30;100823.03;4930855;29;20468;-66
2021/12/13 04:40:28;;;;;;;0.40;0.40;;;;;;;11.70;67.62;100828.63;4932761;29;20472;-66
2021/12/13 04:43:19;;;;;;;0.67;0.37;;;;;;;11.66;67.66;100830.28;4933046;29;20079;-66
2021/12/13 04:45:53;;;;;;;2.20;0.50;;;;;;;11.72;67.41;100835.59;4934898;29;20048;-65
2021/12/13 04:48:24;;;;;;;0.27;0.27;;;;;;;11.73;67.66;100830.88;4932269;29;20564;-65
2021/12/13 04:51:14;;;;;;;0.40;0.40;;;;;;;11.70;67.17;100814.63;4931180;29;20858;-63
2021/12/13 04:53:44;;;;;;;;;;;;;;;11.69;67.62;100835.31;4929486;29;20052;-64
2021/12/13 04:56:20;;;;;;;2.00;0.93;;;;;;;11.73;67.50;100833.66;4930988;29;20009;-63
2021/12/13 04:58:51;;;;;;;0.50;0.37;;;;;;;11.85;67.11;100834.22;4933636;29;20095;-62
2021/12/13 05:01:20;;;;;;;2.13;0.73;;;;;;;11.85;67.28;100839.81;4934517;29;20143;-63
2021/12/13 05:03:57;;;;;;;3.13;1.20;;;;;;;11.85;67.10;100837.03;4936446;29;20055;-68
2021/12/13 05:06:28;;;;;;;0.60;0.60;;;;;;;11.74;67.27;100821.34;4934914;29;20532;-68
2021/12/13 05:08:58;;;;;;;1.67;1.43;;;;;;;11.75;67.30;100828.59;4938913;29;20055;-70
2021/12/13 05:11:31;;;;;;;0.98;0.63;;;;;;;11.69;67.18;100829.72;4938740;29;20087;-71
2021/12/13 05:13:59;;;;;;;0.80;0.70;;;;;;;11.83;67.22;100836.44;4938850;29;20143;-70
2021/12/13 05:16:49;;;;;;;1.37;0.50;;;;;;;11.80;67.05;100831.41;4936012;29;20082;-75
2021/12/13 05:19:26;;;;;;;0.60;0.60;;;;;;;11.69;66.86;100813.81;4920307;29;20048;-76
2021/12/13 05:21:55;;;;;;;0.67;0.67;;;;;;;11.82;67.08;100823.56;4936259;29;20075;-76
2021/12/13 05:24:26;;;;;;;0.93;0.50;;;;;;;11.89;66.92;100838.13;4935860;29;20131;-76
2021/12/13 05:27:09;;;;;;;1.70;1.17;;;;;;;11.89;66.88;100832.53;4936419;29;20138;-62
2021/12/13 05:29:41;;;;;;;1.57;0.73;;;;;;;11.96;66.65;100835.88;4931432;29;20134;-61
2021/12/13 05:32:14;;;;;;;0.87;0.70;;;;;;;11.99;66.55;100832.50;4932124;29;20134;-60
2021/12/13 05:34:49;;;;;;;0.53;0.53;;;;;;;11.91;66.57;100821.91;4929610;29;20051;-60
2021/12/13 05:37:17;;;;;;;2.03;0.50;;;;;;;11.99;66.25;100829.72;4931079;29;20150;-66
2021/12/13 05:40:06;;;;;;;1.17;0.93;;;;;;;11.98;66.36;100822.44;4933738;29;20083;-68
2021/12/13 05:42:56;;;;;;;4.80;1.07;;;;;;;11.90;66.53;100831.44;4917478;29;20501;-59
2021/12/13 05:45:31;;;;;;;0.98;0.77;;;;;;;11.90;66.54;100828.63;4931727;29;20166;-65
2021/12/13 05:48:20;;;;;;;0.63;0.40;;;;;;;11.91;66.57;100816.31;4918720;29;20088;-63
2021/12/13 05:50:50;;;;;;;0.80;0.40;;;;;;;11.91;66.57;100838.69;4931763;29;20048;-63
2021/12/13 05:53:22;;;;;;;0.40;0.40;;;;;;;11.93;66.65;100842.06;4927727;29;20138;-63
2021/12/13 05:55:52;;;;;;;0.37;0.33;;;;;;;11.93;66.71;100855.19;4928269;29;20541;-64
2021/12/13 05:58:33;;;;;;;;;;;;;;;11.76;66.89;100839.53;4930419;29;20126;-64
2021/12/13 06:01:03;;;;;;;3.20;0.90;;;;;;;11.85;66.66;100837.03;4928767;29;19969;-64
2021/12/13 06:03:34;;;;;;;0.80;0.55;;;;;;;11.93;66.45;100842.06;4933132;29;20048;-64
2021/12/13 06:06:14;;;;;;;1.27;0.60;;;;;;;11.77;66.29;100804.84;4935490;29;20082;-63
2021/12/13 06:08:48;;;;;;;0.25;0.25;;;;;;;11.96;66.28;100852.66;4928961;29;20079;-64
2021/12/13 06:11:22;;;;;;;0.20;0.20;;;;;;;11.94;66.17;100852.13;4926898;29;20146;-62
2021/12/13 06:13:56;;;;;;;0.83;0.57;;;;;;;11.92;66.39;100845.13;4930049;29;20123;-64
2021/12/13 06:16:23;;;;;;;0.10;0.10;;;;;;;11.92;66.55;100850.72;4930587;29;20463;-61
2021/12/13 06:19:08;;;;;;;0.60;0.40;;;;;;;11.93;66.37;100858.84;4934444;29;20095;-60
2021/12/13 06:21:41;;;;;;;0.10;0.10;;;;;;;11.93;66.36;100850.47;4927760;29;20127;-63
2021/12/13 06:24:09;;;;;;;0.63;0.47;;;;;;;11.96;66.04;100847.06;4932606;29;20131;-65
2021/12/13 06:26:37;;;;;;;1.80;0.83;;;;;;;11.88;66.47;100860.81;4930823;29;20230;-59
2021/12/13 06:29:06;;;;;;;0.70;0.63;;;;;;;11.75;66.81;100842.59;4924604;29;20047;-63
2021/12/13 06:31:43;;;;;;;0.40;0.30;;;;;;;11.79;66.71;100852.94;4925400;29;20448;-62
2021/12/13 06:34:16;;;;;;;1.20;0.73;;;;;;;11.68;66.71;100844.84;4924343;29;20056;-63
2021/12/13 06:36:52;;;;;;;5.10;1.27;;;;;;;11.85;66.60;100865.00;4920223;29;20062;-74
2021/12/13 06:39:25;;;;;;;0.40;0.40;;;;;;;11.84;66.73;100857.75;4923243;29;20150;-62
2021/12/13 06:42:06;;;;;;;0.77;0.50;;;;;;;11.66;66.70;100836.75;4927534;29;20040;-61
2021/12/13 06:44:40;;;;;;;1.77;0.40;;;;;;;11.79;66.62;100863.28;4925002;29;20150;-63
2021/12/13 06:47:11;;;;;;;0.70;0.70;;;;;;;11.76;66.92;100864.72;4928388;29;20136;-62
2021/12/13 06:49:38;;;;;;;0.43;0.40;;;;;;;11.82;66.68;100862.72;4930099;29;20091;-61
2021/12/13 06:52:11;;;;;;;3.07;1.33;;;;;;;11.79;66.77;100852.09;4926698;29;20480;-60
2021/12/13 06:54:45;;;;;;;0.50;0.50;;;;;;;11.75;66.66;100856.59;4930672;29;20135;-63
2021/12/13 06:57:35;;;;;;;0.27;0.27;;;;;;;11.72;66.85;100863.56;4923480;29;20078;-62
2021/12/13 07:00:08;;;;;;;0.63;0.63;;;;;;;11.72;66.95;100848.75;4922530;29;20583;-62
2021/12/13 07:02:41;;;;;;;0.50;0.47;;;;;;;11.69;67.03;100866.97;4927310;29;20099;-63
2021/12/13 07:05:10;;;;;;;0.83;0.43;;;;;;;11.73;67.07;100873.66;4921321;29;20061;-61
2021/12/13 07:07:48;;;;;;;0.13;0.13;;;;;;;11.78;66.77;100876.44;4920527;29;20051;-58
2021/12/13 07:10:20;;;;;;;0.60;0.57;;;;;;;11.75;66.92;100881.78;4923102;29;20082;-58
2021/12/13 07:13:13;;;;;;;0.40;0.40;;;;;;;11.64;66.91;100872.53;4922157;29;20519;-58
2021/12/13 07:15:44;;;;;;;0.67;0.30;;;;;;;11.65;66.86;100890.16;4916926;29;20139;-58
2021/12/13 07:18:38;;;;;;;0.60;0.50;;;;;;;11.69;66.99;100899.66;4930172;29;20052;-58
2021/12/13 07:21:12;;;;;;;0.33;0.33;;;;;;;11.63;67.20;100891.28;4925030;29;20522;-59
2021/12/13 07:23:54;;;;;;;0.73;0.40;;;;;;;11.48;67.37;100874.47;4923182;29;20495;-58
2021/12/13 07:26:55;;;;;;;0.80;0.50;;;;;;;11.60;67.30;100894.63;4926102;29;20052;-58
2021/12/13 07:29:30;;;;;;;0.80;0.60;;;;;;;11.66;67.22;100903.03;4920829;29;21768;-58
2021/12/13 07:32:32;;;;;;;0.40;0.40;;;;;;;11.58;67.13;100888.47;4930045;29;20222;-58
2021/12/13 07:35:18;;;;;;;1.83;0.50;;;;;;;11.62;67.21;100898.00;4934317;29;20054;-59
2021/12/13 07:37:57;;;;;;;3.80;0.90;;;;;;;11.63;67.25;100899.69;4932134;29;20519;-58
2021/12/13 07:40:57;;;;;;;1.13;0.90;;;;;;;11.60;67.24;100899.41;4933036;29;20090;-59
2021/12/13 07:43:27;;;;;;;0.95;0.60;;;;;;;11.60;67.33;100914.22;4920443;29;20142;-58
2021/12/13 07:45:59;;;;;;;0.47;0.40;;;;;;;11.65;67.22;100907.78;4921314;29;20044;-58
2021/12/13 07:48:34;;;;;;;0.60;0.60;;;;;;;11.70;66.94;100920.94;4930389;29;20130;-58
2021/12/13 07:51:16;;;;;;;0.47;0.23;;;;;;;11.72;66.85;100913.09;4923858;29;20459;-58
2021/12/13 07:54:03;;;;;;;1.60;0.73;;;;;;;11.73;66.67;100918.44;4931739;29;20054;-59
2021/12/13 07:56:33;;;;;;;0.53;0.27;;;;;;;11.77;66.83;100924.31;4932484;29;20067;-59
2021/12/13 07:59:05;;;;;;;;;;;;;;;11.67;67.12;100927.94;4925059;29;20547;-58
2021/12/13 08:01:40;;;;;;;0.23;0.23;;;;;;;11.79;66.72;100928.47;4923573;29;20278;-58
2021/12/13 08:04:15;;;;;;;4.03;0.50;;;;;;;11.78;66.81;100931.56;4930212;29;20048;-58
2021/12/13 08:07:07;;;;;;;0.43;0.30;;;;;;;11.78;66.75;100923.19;4932521;29;20044;-58
2021/12/13 08:09:45;;;;;;;1.00;0.60;;;;;;;11.93;66.54;100940.00;4926554;29;20044;-58
2021/12/13 08:12:19;;;;;;;1.10;0.73;;;;;;;11.94;66.27;100926.84;4930972;29;20123;-58
2021/12/13 08:14:49;;;;;;;1.00;0.93;;;;;;;12.14;66.27;100943.63;4937563;29;20498;-57
2021/12/13 08:17:23;;;;;;;1.08;0.75;;;;;;;12.18;66.11;100944.75;4928895;29;20131;-58
2021/12/13 08:20:06;;;;;;;2.50;1.53;;;;;;;12.36;65.47;100940.50;4935966;29;20563;-58
2021/12/13 08:22:34;;;;;;;0.40;0.40;;;;;;;12.55;65.20;100952.81;4930551;29;20139;-58
2021/12/13 08:25:06;;;;;;;0.87;0.83;;;;;;;12.63;64.72;100942.13;4923818;29;20138;-58
2021/12/13 08:27:42;;;;;;;1.93;0.93;;;;;;;12.57;64.30;100922.53;4929380;29;20094;-58
2021/12/13 08:30:16;;;;;;;0.37;0.37;;;;;;;12.91;63.79;100941.47;4925457;29;20131;-57
2021/12/13 08:33:05;;;;;;;0.37;0.37;;;;;;;12.99;63.34;100949.28;4925893;29;20074;-57
2021/12/13 08:35:48;;;;;;;0.37;0.37;;;;;;;13.06;62.95;100932.16;4925516;29;20440;-57
2021/12/13 08:38:42;;;;;;;0.40;0.40;;;;;;;13.27;62.56;100952.53;4926882;29;20066;-58
2021/12/13 08:41:15;;;;;;;0.37;0.37;;;;;;;13.34;62.25;100943.81;4924833;29;20048;-58
2021/12/13 08:43:48;;;;;;;0.60;0.60;;;;;;;13.44;62.06;100944.59;4924126;29;20048;-57
2021/12/13 08:46:56;;;;;;;1.20;0.90;;;;;;;13.63;61.89;100946.69;4925721;29;20126;-58
2021/12/13 08:49:29;;;;;;;1.47;1.03;;;;;;;13.74;61.07;100937.06;4925249;29;20044;-58
2021/12/13 08:52:19;;;;;;;0.70;0.70;;;;;;;14.02;60.73;100951.44;4925107;29;20494;-58
2021/12/13 08:55:07;;;;;;;1.37;1.13;;;;;;;14.25;60.22;100950.66;4923705;29;20055;-58
2021/12/13 08:57:37;;;;;;;0.93;0.70;;;;;;;14.54;59.77;100966.72;4926475;29;20457;-58
2021/12/13 09:00:20;;;;;;;1.77;1.40;;;;;;;14.82;58.93;100954.59;4923308;29;20054;-59
2021/12/13 09:02:56;;;;;;;1.55;1.15;;;;;;;15.30;58.28;100945.25;4923668;29;20470;-58
2021/12/13 09:05:32;;;;;;;0.57;0.57;;;;;;;15.75;56.95;100946.56;4926596;29;20134;-58
2021/12/13 09:08:04;;;;;;;1.17;1.08;;;;;;;16.19;56.01;100950.09;4918175;29;20130;-59
2021/12/13 09:10:44;;;;;;;0.82;0.80;;;;;;;16.69;55.24;100953.94;4922400;29;20039;-58
2021/12/13 09:13:12;;;;;;;1.43;1.00;;;;;;;17.01;54.66;100957.84;4927703;29;20130;-58
2021/12/13 09:15:42;;;;;;;1.67;1.25;;;;;;;17.26;53.25;100962.94;4934479;29;20401;-59
2021/12/13 09:18:16;;;;;;;6.50;1.63;;;;;;;17.51;53.17;100966.34;4933145;29;20131;-58
2021/12/13 09:20:49;;;;;;;1.92;1.25;;;;;;;17.69;52.47;100965.34;4921236;29;20131;-59
2021/12/13 09:23:26;;;;;;;2.42;1.15;;;;;;;18.09;51.82;100961.91;4929033;29;20126;-59
2021/12/13 09:26:11;;;;;;;1.90;1.48;;;;;;;18.17;50.72;100958.28;4924412;29;20130;-58
2021/12/13 09:29:03;;;;;;;4.97;1.48;;;;;;;18.22;49.88;100959.00;4926823;29;20510;-58
2021/12/13 09:31:37;;;;;;;3.78;1.30;;;;;;;18.35;49.88;100947.91;4928551;29;20088;-58
2021/12/13 09:34:10;;;;;;;1.95;1.60;;;;;;;18.59;49.72;100953.19;4931822;29;20044;-58
2021/12/13 09:36:42;;;;;;;2.83;1.73;;;;;;;18.94;49.54;100954.25;4921069;29;20299;-58
2021/12/13 09:39:16;;;;;;;3.85;1.45;;;;;;;19.35;48.82;100965.19;4927111;29;20083;-58
2021/12/13 09:41:46;;;;;;;1.98;1.55;;;;;;;19.25;48.18;100961.81;4923714;29;20787;-58
2021/12/13 09:44:33;;;;;;;1.98;1.80;;;;;;;19.28;48.10;100952.66;4928769;29;20127;-58
2021/12/13 09:47:03;;;;;;;2.78;1.80;;;;;;;19.76;47.84;100957.41;4924777;29;20138;-58
2021/12/13 09:49:53;;;;;;;3.83;1.48;;;;;;;20.15;47.26;100958.41;4922462;29;20048;-58
2021/12/13 09:52:57;;;;;;;4.47;1.50;;;;;;;20.04;47.03;100964.44;4919743;28;20178;-59
2021/12/13 09:55:41;;;;;;;4.07;1.95;;;;;;;20.73;46.39;100974.00;4884317;29;20135;-59
2021/12/13 09:58:17;;;;;;;4.95;4.13;;;;;;;20.95;45.81;100964.38;4921846;29;20058;-59
2021/12/13 10:00:49;;;;;;;3.08;1.85;;;;;;;20.87;45.55;100970.94;4920163;29;20051;-58
2021/12/13 10:03:45;;;;;;;3.00;1.98;;;;;;;20.37;45.00;100969.53;4919388;29;20097;-58
2021/12/13 10:06:17;;;;;;;3.45;1.80;;;;;;;20.43;45.64;100964.53;4914409;29;20075;-58
2021/12/13 10:08:57;;;;;;;4.10;1.98;;;;;;;20.76;45.88;100967.63;4925175;29;20075;-57
2021/12/13 10:11:43;;;;;;;4.15;2.20;;;;;;;20.99;45.71;100977.56;4920698;29;20048;-59
2021/12/13 10:14:13;;;;;;;4.13;2.63;;;;;;;21.13;45.59;100973.63;4925440;29;20059;-58
2021/12/13 10:16:43;;;;;;;3.55;2.38;;;;;;;21.29;45.02;100957.69;4927829;29;20083;-58
2021/12/13 10:19:19;;;;;;;3.03;2.38;;;;;;;21.13;44.03;100960.28;4923251;29;20503;-58
2021/12/13 10:21:48;;;;;;;7.70;2.40;;;;;;;21.09;44.25;100964.13;4919344;29;20448;-59
2021/12/13 10:24:24;;;;;;;2.05;1.30;;;;;;;20.73;43.91;100965.47;4925137;29;20142;-59
2021/12/13 10:26:54;;;;;;;2.88;2.00;;;;;;;20.52;44.28;100965.38;4930497;29;20090;-59
2021/12/13 10:29:40;;;;;;;4.03;2.17;;;;;;;20.26;44.30;100965.38;4923356;29;20047;-59
2021/12/13 10:32:12;;;;;;;2.17;1.60;;;;;;;19.97;44.48;100957.59;4923587;29;20182;-59
2021/12/13 10:34:47;;;;;;;4.65;2.05;;;;;;;19.88;44.94;100964.09;4926835;29;20492;-58
2021/12/13 10:37:27;;;;;;;1.63;1.45;;;;;;;19.92;44.72;100958.59;4929612;29;20048;-58
2021/12/13 10:39:59;;;;;;;2.40;2.15;;;;;;;19.76;44.96;100946.94;4927751;29;20596;-59
2021/12/13 10:42:36;;;;;;;4.47;2.40;;;;;;;20.01;44.70;100955.75;4918319;29;20048;-59
2021/12/13 10:45:09;;;;;;;1.95;1.67;;;;;;;20.26;44.35;100971.88;4925676;29;20106;-59
2021/12/13 10:47:40;;;;;;;3.45;2.60;;;;;;;20.43;44.00;100970.19;4922484;29;20519;-58
2021/12/13 10:50:17;;;;;;;3.80;2.45;;;;;;;20.32;43.58;100964.06;4924715;29;20054;-58
2021/12/13 10:52:53;;;;;;;8.07;2.97;;;;;;;20.38;44.13;100961.88;4921624;29;20052;-57
2021/12/13 10:55:25;;;;;;;3.08;1.98;;;;;;;20.87;43.36;100968.91;4924386;29;20055;-57
2021/12/13 10:57:53;;;;;;;2.35;2.10;;;;;;;20.77;43.03;100957.94;4920447;29;20051;-57
2021/12/13 11:00:39;;;;;;;5.50;2.28;;;;;;;20.94;43.14;100966.38;4926314;29;20143;-57
2021/12/13 11:03:12;;;;;;;5.53;2.58;;;;;;;21.18;42.67;100950.75;4925596;29;20116;-57
2021/12/13 11:05:41;;;;;;;4.15;2.80;;;;;;;21.34;42.45;100956.66;4925718;29;20419;-57
2021/12/13 11:08:11;;;;;;;2.70;1.92;;;;;;;21.36;42.24;100954.31;4923797;29;20075;-57
2021/12/13 11:10:48;;;;;;;8.00;3.30;;;;;;;21.79;41.73;100950.34;4926056;29;20142;-57
2021/12/13 11:13:26;;;;;;;4.57;2.60;;;;;;;22.07;41.16;100953.44;4923017;29;20047;-58
2021/12/13 11:15:57;;;;;;;3.35;2.92;;;;;;;22.18;41.14;100949.00;4924790;29;20079;-57
2021/12/13 11:18:31;;;;;;;6.72;2.90;;;;;;;22.18;40.15;100946.16;4926366;29;20055;-57
2021/12/13 11:21:16;;;;;;;4.28;2.95;;;;;;;22.56;40.44;100947.94;4928846;29;20130;-57
2021/12/13 11:23:44;;;;;;;3.70;2.80;;;;;;;22.65;39.37;100948.69;4925739;29;20522;-57
2021/12/13 11:26:14;;;;;;;1.85;1.75;;;;;;;22.39;39.78;100944.13;4931425;29;20047;-57
2021/12/13 11:28:42;;;;;;;7.55;2.83;;;;;;;22.19;39.89;100945.00;4925767;29;20051;-57
2021/12/13 11:31:37;;;;;;;2.50;2.22;;;;;;;22.56;40.54;100934.53;4929037;29;20110;-58
2021/12/13 11:34:34;;;;;;;4.32;2.20;;;;;;;22.89;39.35;100927.94;4930586;29;20051;-58
2021/12/13 11:37:50;;;;;;;4.40;3.22;;;;;;;22.96;39.37;100936.75;4920620;29;20088;-57
2021/12/13 11:40:20;;;;;;;4.13;2.65;;;;;;;22.64;38.88;100935.63;4920184;29;20607;-57
2021/12/13 11:43:06;;;;;;;4.63;3.50;;;;;;;23.29;38.86;100936.63;4924241;29;20083;-58
2021/12/13 11:46:08;;;;;;;7.20;4.20;;;;;;;23.53;37.35;100937.78;4920768;29;20138;-58
2021/12/13 11:49:03;;;;;;;5.30;3.22;;;;;;;23.30;38.07;100928.91;4843329;29;20056;-58
2021/12/13 11:52:03;;;;;;;5.75;3.70;;;;;;;23.93;37.88;100931.28;4916440;29;20495;-58
2021/12/13 11:55:19;;;;;;;4.70;3.30;;;;;;;24.29;37.35;100927.44;4939496;29;20151;-59
2021/12/13 11:58:23;;;;;;;3.50;2.47;;;;;;;24.53;36.04;100924.47;4920333;29;20135;-57
2021/12/13 12:01:24;;;;;;;5.65;3.83;;;;;;;24.42;36.28;100919.69;4919297;29;20058;-57
2021/12/13 12:04:12;;;;;;;6.85;3.80;;;;;;;24.74;36.28;100904.22;4917037;29;20051;-58
2021/12/13 12:06:58;;;;;;;6.35;3.60;;;;;;;24.89;35.41;100914.00;4921375;29;20082;-58
2021/12/13 12:09:47;;;;;;;5.85;3.38;;;;;;;24.80;36.26;100907.63;4922196;29;20139;-58
2021/12/13 12:12:52;;;;;;;5.25;3.05;;;;;;;25.29;35.63;100913.75;4931888;29;20476;-58
2021/12/13 12:15:21;;;;;;;5.55;3.60;;;;;;;25.69;35.23;100912.63;4923571;29;20047;-58
2021/12/13 12:17:50;;;;;;;4.05;3.13;;;;;;;25.80;34.69;100918.63;4933886;29;20039;-58
2021/12/13 12:20:25;;;;;;;6.22;4.00;;;;;;;26.10;34.67;100892.28;4935189;29;20090;-58
2021/12/13 12:23:02;;;;;;;9.40;3.85;;;;;;;26.32;33.68;100879.19;4925009;29;20154;-59
2021/12/13 12:25:33;;;;;;;5.20;3.10;;;;;;;26.20;33.71;100901.06;4926757;29;20181;-58
2021/12/13 12:28:08;;;;;;;4.65;3.90;;;;;;;26.30;33.91;100895.94;4928563;29;20083;-58